sensor_id;sensor_type;location;lat;lon;timestamp;pressure;altitude;pressure_sealevel;temperature;humidity
6393;BME280;3229;42.674;23.282;2023-02-11T00:02:20;96255.41;;;3.67;45.87
6393;BME280;3229;42.674;23.282;2023-02-11T00:04:47;96255.50;;;3.65;45.78
6393;BME280;3229;42.674;23.282;2023-02-11T00:07:14;96258.91;;;3.64;45.98
6393;BME280;3229;42.674;23.282;2023-02-11T00:09:41;96256.44;;;3.63;45.85
6393;BME280;3229;42.674;23.282;2023-02-11T00:12:08;96257.31;;;3.62;45.68
6393;BME280;3229;42.674;23.282;2023-02-11T00:14:35;96255.66;;;3.61;45.93
6393;BME280;3229;42.674;23.282;2023-02-11T00:17:03;96249.00;;;3.58;45.78
6393;BME280;3229;42.674;23.282;2023-02-11T00:19:29;96260.00;;;3.57;46.08
6393;BME280;3229;42.674;23.282;2023-02-11T00:21:56;96269.38;;;3.55;45.92
6393;BME280;3229;42.674;23.282;2023-02-11T00:24:23;96249.34;;;3.49;46.04
6393;BME280;3229;42.674;23.282;2023-02-11T00:26:50;96255.19;;;3.51;45.83
6393;BME280;3229;42.674;23.282;2023-02-11T00:29:17;96265.22;;;3.52;45.80
6393;BME280;3229;42.674;23.282;2023-02-11T00:31:43;96264.47;;;3.50;45.95
6393;BME280;3229;42.674;23.282;2023-02-11T00:34:12;96260.34;;;3.48;45.96
6393;BME280;3229;42.674;23.282;2023-02-11T00:36:39;96266.22;;;3.48;45.89
6393;BME280;3229;42.674;23.282;2023-02-11T00:39:06;96246.09;;;3.45;45.96
6393;BME280;3229;42.674;23.282;2023-02-11T00:41:33;96253.75;;;3.44;46.02
6393;BME280;3229;42.674;23.282;2023-02-11T00:44:00;96253.00;;;3.42;45.94
6393;BME280;3229;42.674;23.282;2023-02-11T00:46:27;96253.81;;;3.42;45.61
6393;BME280;3229;42.674;23.282;2023-02-11T00:48:54;96256.34;;;3.42;46.07
6393;BME280;3229;42.674;23.282;2023-02-11T00:51:23;96244.59;;;3.41;45.96
6393;BME280;3229;42.674;23.282;2023-02-11T00:53:50;96242.97;;;3.39;45.98
6393;BME280;3229;42.674;23.282;2023-02-11T00:56:17;96238.00;;;3.37;45.85
6393;BME280;3229;42.674;23.282;2023-02-11T00:58:44;96231.41;;;3.33;45.91
6393;BME280;3229;42.674;23.282;2023-02-11T01:01:11;96238.03;;;3.36;46.09
6393;BME280;3229;42.674;23.282;2023-02-11T01:03:39;96240.56;;;3.36;46.12
6393;BME280;3229;42.674;23.282;2023-02-11T01:06:07;96245.69;;;3.34;45.83
6393;BME280;3229;42.674;23.282;2023-02-11T01:08:37;96244.91;;;3.32;46.03
6393;BME280;3229;42.674;23.282;2023-02-11T01:11:06;96244.06;;;3.32;45.99
6393;BME280;3229;42.674;23.282;2023-02-11T01:13:34;96241.63;;;3.30;46.13
6393;BME280;3229;42.674;23.282;2023-02-11T01:16:04;96238.25;;;3.30;46.10
6393;BME280;3229;42.674;23.282;2023-02-11T01:18:31;96234.09;;;3.29;45.97
6393;BME280;3229;42.674;23.282;2023-02-11T01:20:59;96237.47;;;3.27;46.09
6393;BME280;3229;42.674;23.282;2023-02-11T01:23:25;96236.72;;;3.25;46.07
6393;BME280;3229;42.674;23.282;2023-02-11T01:25:53;96240.13;;;3.24;45.93
6393;BME280;3229;42.674;23.282;2023-02-11T01:28:22;96221.00;;;3.17;45.84
6393;BME280;3229;42.674;23.282;2023-02-11T01:30:50;96233.53;;;3.20;46.22
6393;BME280;3229;42.674;23.282;2023-02-11T01:33:17;96232.72;;;3.20;45.88
6393;BME280;3229;42.674;23.282;2023-02-11T01:35:44;96228.53;;;3.19;46.23
6393;BME280;3229;42.674;23.282;2023-02-11T01:38:14;96228.53;;;3.19;46.20
6393;BME280;3229;42.674;23.282;2023-02-11T01:40:46;96229.41;;;3.18;46.08
6393;BME280;3229;42.674;23.282;2023-02-11T01:43:15;96228.66;;;3.16;46.25
6393;BME280;3229;42.674;23.282;2023-02-11T01:46:00;96222.00;;;3.13;46.09
6393;BME280;3229;42.674;23.282;2023-02-11T01:48:31;96222.06;;;3.12;46.10
6393;BME280;3229;42.674;23.282;2023-02-11T01:51:04;96217.94;;;3.09;46.00
6393;BME280;3229;42.674;23.282;2023-02-11T01:53:33;96212.97;;;3.06;46.35
6393;BME280;3229;42.674;23.282;2023-02-11T01:56:19;96219.72;;;3.06;46.29
6393;BME280;3229;42.674;23.282;2023-02-11T01:59:10;96216.44;;;3.04;46.36
6393;BME280;3229;42.674;23.282;2023-02-11T02:01:39;96210.56;;;3.03;46.17
6393;BME280;3229;42.674;23.282;2023-02-11T02:04:10;96213.13;;;3.01;46.35
6393;BME280;3229;42.674;23.282;2023-02-11T02:06:42;96210.94;;;2.92;46.34
6393;BME280;3229;42.674;23.282;2023-02-11T02:09:17;96214.91;;;2.99;46.14
6393;BME280;3229;42.674;23.282;2023-02-11T02:11:45;96229.25;;;2.99;46.12
6393;BME280;3229;42.674;23.282;2023-02-11T02:14:13;96227.59;;;2.98;46.11
6393;BME280;3229;42.674;23.282;2023-02-11T02:16:40;96224.22;;;2.97;46.29
6393;BME280;3229;42.674;23.282;2023-02-11T02:19:49;96226.81;;;2.96;46.43
6393;BME280;3229;42.674;23.282;2023-02-11T02:23:04;96228.59;;;2.94;46.45
6393;BME280;3229;42.674;23.282;2023-02-11T02:25:47;96228.72;;;2.89;46.19
6393;BME280;3229;42.674;23.282;2023-02-11T02:28:35;96220.31;;;2.89;46.35
6393;BME280;3229;42.674;23.282;2023-02-11T02:31:25;96221.22;;;2.88;46.45
6393;BME280;3229;42.674;23.282;2023-02-11T02:34:02;96217.09;;;2.85;46.51
6393;BME280;3229;42.674;23.282;2023-02-11T02:36:36;96191.63;;;2.66;46.36
6393;BME280;3229;42.674;23.282;2023-02-11T02:39:10;96212.25;;;2.79;46.29
6393;BME280;3229;42.674;23.282;2023-02-11T02:41:41;96218.84;;;2.83;46.31
6393;BME280;3229;42.674;23.282;2023-02-11T02:44:08;96140.66;;;2.32;46.31
6393;BME280;3229;42.674;23.282;2023-02-11T02:46:35;96205.56;;;2.78;46.29
6393;BME280;3229;42.674;23.282;2023-02-11T02:49:05;96211.38;;;2.80;46.20
6393;BME280;3229;42.674;23.282;2023-02-11T02:54:47;96202.47;;;2.70;46.14
6393;BME280;3229;42.674;23.282;2023-02-11T02:57:30;96217.47;;;2.74;46.34
6393;BME280;3229;42.674;23.282;2023-02-11T03:00:13;96218.28;;;2.75;46.32
6393;BME280;3229;42.674;23.282;2023-02-11T03:02:55;96219.22;;;2.72;46.37
6393;BME280;3229;42.674;23.282;2023-02-11T03:05:31;96212.50;;;2.71;46.34
6393;BME280;3229;42.674;23.282;2023-02-11T03:08:06;96215.09;;;2.70;46.33
6393;BME280;3229;42.674;23.282;2023-02-11T03:10:36;96206.78;;;2.66;46.27
6393;BME280;3229;42.674;23.282;2023-02-11T03:13:04;96217.69;;;2.68;46.28
6393;BME280;3229;42.674;23.282;2023-02-11T03:15:37;96216.00;;;2.67;46.29
6393;BME280;3229;42.674;23.282;2023-02-11T03:18:05;96205.38;;;2.59;46.21
6393;BME280;3229;42.674;23.282;2023-02-11T03:20:35;96217.78;;;2.65;46.42
6393;BME280;3229;42.674;23.282;2023-02-11T03:23:07;96219.47;;;2.65;46.32
6393;BME280;3229;42.674;23.282;2023-02-11T03:25:41;96219.50;;;2.63;46.42
6393;BME280;3229;42.674;23.282;2023-02-11T03:28:15;96209.53;;;2.60;46.13
6393;BME280;3229;42.674;23.282;2023-02-11T03:30:46;96219.56;;;2.62;46.28
6393;BME280;3229;42.674;23.282;2023-02-11T03:33:22;96218.81;;;2.60;46.43
6393;BME280;3229;42.674;23.282;2023-02-11T03:35:53;96220.47;;;2.61;46.61
6393;BME280;3229;42.674;23.282;2023-02-11T03:38:24;96213.78;;;2.60;46.33
6393;BME280;3229;42.674;23.282;2023-02-11T03:40:54;96210.41;;;2.59;46.29
6393;BME280;3229;42.674;23.282;2023-02-11T03:43:25;96204.59;;;2.57;46.07
6393;BME280;3229;42.674;23.282;2023-02-11T03:45:54;96212.94;;;2.59;46.24
6393;BME280;3229;42.674;23.282;2023-02-11T03:48:24;96214.63;;;2.59;46.14
6393;BME280;3229;42.674;23.282;2023-02-11T03:50:55;96215.50;;;2.58;46.26
6393;BME280;3229;42.674;23.282;2023-02-11T03:53:23;96210.44;;;2.58;46.33
6393;BME280;3229;42.674;23.282;2023-02-11T03:55:51;96210.44;;;2.58;46.20
6393;BME280;3229;42.674;23.282;2023-02-11T03:58:19;96218.03;;;2.58;46.26
6393;BME280;3229;42.674;23.282;2023-02-11T04:00:46;96212.22;;;2.56;46.32
6393;BME280;3229;42.674;23.282;2023-02-11T04:03:13;96214.75;;;2.56;46.35
6393;BME280;3229;42.674;23.282;2023-02-11T04:05:40;96217.31;;;2.54;46.34
6393;BME280;3229;42.674;23.282;2023-02-11T04:08:09;96213.22;;;2.50;46.23
6393;BME280;3229;42.674;23.282;2023-02-11T04:10:35;96212.31;;;2.53;46.26
6393;BME280;3229;42.674;23.282;2023-02-11T04:13:02;96216.53;;;2.52;46.28
6393;BME280;3229;42.674;23.282;2023-02-11T04:15:29;96215.72;;;2.51;46.10
6393;BME280;3229;42.674;23.282;2023-02-11T04:17:56;96211.50;;;2.52;46.14
6393;BME280;3229;42.674;23.282;2023-02-11T04:20:23;96216.53;;;2.52;46.10
6393;BME280;3229;42.674;23.282;2023-02-11T04:22:50;96214.06;;;2.50;46.37
6393;BME280;3229;42.674;23.282;2023-02-11T04:25:18;96213.22;;;2.50;46.56
6393;BME280;3229;42.674;23.282;2023-02-11T04:27:44;96209.88;;;2.49;46.51
6393;BME280;3229;42.674;23.282;2023-02-11T04:30:12;96207.41;;;2.48;46.41
6393;BME280;3229;42.674;23.282;2023-02-11T04:32:39;96170.50;;;2.19;46.29
6393;BME280;3229;42.674;23.282;2023-02-11T04:35:06;96200.09;;;2.40;46.48
6393;BME280;3229;42.674;23.282;2023-02-11T04:37:33;96210.09;;;2.43;46.44
6393;BME280;3229;42.674;23.282;2023-02-11T04:40:00;96208.47;;;2.42;46.35
6393;BME280;3229;42.674;23.282;2023-02-11T04:42:28;96187.63;;;2.36;46.33
6393;BME280;3229;42.674;23.282;2023-02-11T04:44:55;96186.06;;;2.32;46.42
6393;BME280;3229;42.674;23.282;2023-02-11T04:47:22;96199.34;;;2.38;46.41
6393;BME280;3229;42.674;23.282;2023-02-11T04:49:48;96204.38;;;2.38;46.42
6393;BME280;3229;42.674;23.282;2023-02-11T04:52:15;96202.78;;;2.36;46.49
6393;BME280;3229;42.674;23.282;2023-02-11T04:54:42;96206.19;;;2.35;46.56
6393;BME280;3229;42.674;23.282;2023-02-11T04:57:09;96197.00;;;2.32;46.72
6393;BME280;3229;42.674;23.282;2023-02-11T04:59:37;96197.88;;;2.31;46.69
6393;BME280;3229;42.674;23.282;2023-02-11T05:02:05;96193.81;;;2.27;46.69
6393;BME280;3229;42.674;23.282;2023-02-11T05:04:32;96192.91;;;2.28;46.45
6393;BME280;3229;42.674;23.282;2023-02-11T05:06:58;96197.97;;;2.28;46.53
6393;BME280;3229;42.674;23.282;2023-02-11T05:09:25;96182.22;;;2.21;46.55
6393;BME280;3229;42.674;23.282;2023-02-11T05:11:52;96192.16;;;2.26;46.64
6393;BME280;3229;42.674;23.282;2023-02-11T05:14:19;96188.81;;;2.25;46.39
6393;BME280;3229;42.674;23.282;2023-02-11T05:16:47;96182.94;;;2.25;46.61
6393;BME280;3229;42.674;23.282;2023-02-11T05:19:14;96184.69;;;2.23;46.72
6393;BME280;3229;42.674;23.282;2023-02-11T05:21:41;96186.31;;;2.24;46.41
6393;BME280;3229;42.674;23.282;2023-02-11T05:24:07;96185.50;;;2.23;46.48
6393;BME280;3229;42.674;23.282;2023-02-11T05:26:34;96186.31;;;2.24;46.65
6393;BME280;3229;42.674;23.282;2023-02-11T05:29:01;96202.34;;;2.23;46.58
6393;BME280;3229;42.674;23.282;2023-02-11T05:31:28;96186.38;;;2.22;46.64
6393;BME280;3229;42.674;23.282;2023-02-11T05:33:56;96191.44;;;2.22;46.36
6393;BME280;3229;42.674;23.282;2023-02-11T05:36:23;96192.25;;;2.23;46.41
6393;BME280;3229;42.674;23.282;2023-02-11T05:38:49;96186.31;;;2.24;46.53
6393;BME280;3229;42.674;23.282;2023-02-11T05:41:16;96190.53;;;2.25;46.37
6393;BME280;3229;42.674;23.282;2023-02-11T05:43:43;96195.50;;;2.26;46.69
6393;BME280;3229;42.674;23.282;2023-02-11T05:46:10;96191.22;;;2.29;46.38
6393;BME280;3229;42.674;23.282;2023-02-11T05:48:36;96192.81;;;2.31;46.33
6393;BME280;3229;42.674;23.282;2023-02-11T05:51:04;96195.19;;;2.36;46.48
6393;BME280;3229;42.674;23.282;2023-02-11T05:53:31;96193.47;;;2.38;46.59
6393;BME280;3229;42.674;23.282;2023-02-11T05:55:58;96190.81;;;2.41;46.18
6393;BME280;3229;42.674;23.282;2023-02-11T05:58:25;96191.47;;;2.46;46.23
6393;BME280;3229;42.674;23.282;2023-02-11T06:00:52;96181.59;;;2.40;46.32
6393;BME280;3229;42.674;23.282;2023-02-11T06:03:18;96178.81;;;2.47;46.14
6393;BME280;3229;42.674;23.282;2023-02-11T06:05:45;96196.84;;;2.62;45.90
6393;BME280;3229;42.674;23.282;2023-02-11T06:08:13;96190.81;;;2.66;46.16
6393;BME280;3229;42.674;23.282;2023-02-11T06:10:43;96198.97;;;2.74;45.96
6393;BME280;3229;42.674;23.282;2023-02-11T06:13:10;96194.56;;;2.79;46.18
6393;BME280;3229;42.674;23.282;2023-02-11T06:15:37;96205.28;;;2.86;45.85
6393;BME280;3229;42.674;23.282;2023-02-11T06:18:04;96205.06;;;2.92;45.71
6393;BME280;3229;42.674;23.282;2023-02-11T06:20:31;96203.97;;;2.99;45.72
6393;BME280;3229;42.674;23.282;2023-02-11T06:22:58;96207.09;;;3.06;45.76
6393;BME280;3229;42.674;23.282;2023-02-11T06:25:26;96204.31;;;3.13;45.79
6393;BME280;3229;42.674;23.282;2023-02-11T06:27:53;96206.50;;;3.22;45.44
6393;BME280;3229;42.674;23.282;2023-02-11T06:30:19;96205.34;;;3.31;45.47
6393;BME280;3229;42.674;23.282;2023-02-11T06:32:46;96203.25;;;3.42;45.29
6393;BME280;3229;42.674;23.282;2023-02-11T06:35:13;96207.22;;;3.71;45.16
6393;BME280;3229;42.674;23.282;2023-02-11T06:37:40;96207.09;;;4.17;44.92
6393;BME280;3229;42.674;23.282;2023-02-11T06:40:08;96206.47;;;4.73;45.13
6393;BME280;3229;42.674;23.282;2023-02-11T06:42:36;96201.84;;;5.41;45.61
6393;BME280;3229;42.674;23.282;2023-02-11T06:45:04;96208.59;;;6.14;45.55
6393;BME280;3229;42.674;23.282;2023-02-11T06:47:33;96210.78;;;6.90;45.42
6393;BME280;3229;42.674;23.282;2023-02-11T06:50:00;96214.44;;;7.66;45.12
6393;BME280;3229;42.674;23.282;2023-02-11T06:52:27;96223.00;;;8.43;44.44
6393;BME280;3229;42.674;23.282;2023-02-11T06:54:54;96214.34;;;9.18;44.11
6393;BME280;3229;42.674;23.282;2023-02-11T06:57:20;96213.03;;;9.95;43.54
6393;BME280;3229;42.674;23.282;2023-02-11T06:59:49;96215.91;;;10.70;43.05
6393;BME280;3229;42.674;23.282;2023-02-11T07:02:16;96214.34;;;11.44;42.30
6393;BME280;3229;42.674;23.282;2023-02-11T07:04:43;96216.19;;;12.16;41.65
6393;BME280;3229;42.674;23.282;2023-02-11T07:07:09;96216.16;;;12.86;40.89
6393;BME280;3229;42.674;23.282;2023-02-11T07:09:36;96207.72;;;13.53;40.57
6393;BME280;3229;42.674;23.282;2023-02-11T07:12:03;96214.59;;;14.18;40.03
6393;BME280;3229;42.674;23.282;2023-02-11T07:14:30;96208.03;;;14.78;39.17
6393;BME280;3229;42.674;23.282;2023-02-11T07:16:58;96208.31;;;15.37;38.65
6393;BME280;3229;42.674;23.282;2023-02-11T07:19:25;96206.34;;;15.90;38.18
6393;BME280;3229;42.674;23.282;2023-02-11T07:21:52;96201.75;;;16.42;37.82
6393;BME280;3229;42.674;23.282;2023-02-11T07:24:19;96174.13;;;16.82;37.35
6393;BME280;3229;42.674;23.282;2023-02-11T07:26:46;96193.09;;;17.47;36.92
6393;BME280;3229;42.674;23.282;2023-02-11T07:29:13;96180.78;;;17.86;36.71
6393;BME280;3229;42.674;23.282;2023-02-11T07:31:39;96190.34;;;18.39;36.21
6393;BME280;3229;42.674;23.282;2023-02-11T07:34:09;96187.81;;;18.83;35.90
6393;BME280;3229;42.674;23.282;2023-02-11T07:36:36;96183.69;;;19.24;35.49
6393;BME280;3229;42.674;23.282;2023-02-11T07:39:03;96187.78;;;19.61;35.11
6393;BME280;3229;42.674;23.282;2023-02-11T07:41:29;96182.03;;;19.92;34.73
6393;BME280;3229;42.674;23.282;2023-02-11T07:43:56;96160.31;;;20.09;34.36
6393;BME280;3229;42.674;23.282;2023-02-11T07:46:25;96174.00;;;20.52;34.21
6393;BME280;3229;42.674;23.282;2023-02-11T07:48:52;96173.81;;;20.78;33.90
6393;BME280;3229;42.674;23.282;2023-02-11T07:51:22;96169.72;;;21.00;34.18
6393;BME280;3229;42.674;23.282;2023-02-11T07:53:51;96165.56;;;21.30;39.65
6393;BME280;3229;42.674;23.282;2023-02-11T07:56:19;96163.34;;;21.58;39.82
6393;BME280;3229;42.674;23.282;2023-02-11T07:58:46;96170.91;;;21.76;40.40
6393;BME280;3229;42.674;23.282;2023-02-11T08:01:14;96168.88;;;21.94;40.07
6393;BME280;3229;42.674;23.282;2023-02-11T08:03:42;96170.28;;;22.05;39.26
6393;BME280;3229;42.674;23.282;2023-02-11T08:06:10;96165.31;;;22.18;39.72
6393;BME280;3229;42.674;23.282;2023-02-11T08:08:38;96149.88;;;22.17;39.17
6393;BME280;3229;42.674;23.282;2023-02-11T08:11:06;96175.41;;;22.44;39.82
6393;BME280;3229;42.674;23.282;2023-02-11T08:13:33;96174.00;;;22.57;39.69
6393;BME280;3229;42.674;23.282;2023-02-11T08:16:00;96170.72;;;22.63;39.41
6393;BME280;3229;42.674;23.282;2023-02-11T08:18:27;96166.66;;;22.60;39.18
6393;BME280;3229;42.674;23.282;2023-02-11T08:20:54;96169.72;;;22.41;38.61
6393;BME280;3229;42.674;23.282;2023-02-11T08:23:20;96168.13;;;22.09;38.48
6393;BME280;3229;42.674;23.282;2023-02-11T08:25:49;96175.03;;;21.70;37.86
6393;BME280;3229;42.674;23.282;2023-02-11T08:28:16;96182.16;;;21.29;37.16
6393;BME280;3229;42.674;23.282;2023-02-11T08:30:42;96176.91;;;20.90;37.11
6393;BME280;3229;42.674;23.282;2023-02-11T08:33:09;96179.03;;;20.62;36.60
6393;BME280;3229;42.674;23.282;2023-02-11T08:35:36;96177.84;;;20.23;36.01
6393;BME280;3229;42.674;23.282;2023-02-11T08:38:04;96177.09;;;19.80;36.09
6393;BME280;3229;42.674;23.282;2023-02-11T08:40:31;96170.78;;;19.41;35.96
6393;BME280;3229;42.674;23.282;2023-02-11T08:42:59;96177.25;;;19.02;35.87
6393;BME280;3229;42.674;23.282;2023-02-11T08:45:26;96171.25;;;18.58;35.77
6393;BME280;3229;42.674;23.282;2023-02-11T08:47:53;96172.47;;;18.28;35.83
6393;BME280;3229;42.674;23.282;2023-02-11T08:50:20;96175.88;;;17.93;35.81
6393;BME280;3229;42.674;23.282;2023-02-11T08:52:47;96172.22;;;17.58;35.81
6393;BME280;3229;42.674;23.282;2023-02-11T08:55:14;96173.59;;;17.25;35.95
6393;BME280;3229;42.674;23.282;2023-02-11T08:57:41;96175.47;;;16.95;35.73
6393;BME280;3229;42.674;23.282;2023-02-11T09:00:10;96180.81;;;16.65;35.82
6393;BME280;3229;42.674;23.282;2023-02-11T09:02:37;96176.47;;;16.36;35.86
6393;BME280;3229;42.674;23.282;2023-02-11T09:05:04;96173.75;;;16.09;35.81
6393;BME280;3229;42.674;23.282;2023-02-11T09:07:31;96165.97;;;15.79;35.79
6393;BME280;3229;42.674;23.282;2023-02-11T09:09:58;96159.53;;;15.54;36.00
6393;BME280;3229;42.674;23.282;2023-02-11T09:12:25;96161.50;;;15.31;35.85
6393;BME280;3229;42.674;23.282;2023-02-11T09:14:52;96163.44;;;15.09;35.84
6393;BME280;3229;42.674;23.282;2023-02-11T09:17:20;96157.66;;;14.86;35.85
6393;BME280;3229;42.674;23.282;2023-02-11T09:19:47;96165.25;;;14.66;36.09
6393;BME280;3229;42.674;23.282;2023-02-11T09:22:13;96155.06;;;14.44;35.76
6393;BME280;3229;42.674;23.282;2023-02-11T09:24:40;96155.47;;;14.28;35.81
6393;BME280;3229;42.674;23.282;2023-02-11T09:27:07;96161.31;;;14.09;35.99
6393;BME280;3229;42.674;23.282;2023-02-11T09:29:34;96153.97;;;13.93;36.00
6393;BME280;3229;42.674;23.282;2023-02-11T09:32:01;96145.84;;;13.77;35.93
6393;BME280;3229;42.674;23.282;2023-02-11T09:34:29;96147.06;;;13.62;36.07
6393;BME280;3229;42.674;23.282;2023-02-11T09:36:56;96143.94;;;13.47;36.10
6393;BME280;3229;42.674;23.282;2023-02-11T09:39:23;96125.16;;;13.24;36.15
6393;BME280;3229;42.674;23.282;2023-02-11T09:42:12;96142.66;;;13.19;35.85
6393;BME280;3229;42.674;23.282;2023-02-11T09:44:45;96128.31;;;13.05;36.04
6393;BME280;3229;42.674;23.282;2023-02-11T09:47:22;96134.25;;;12.94;36.09
6393;BME280;3229;42.674;23.282;2023-02-11T09:49:56;96116.28;;;12.83;36.08
6393;BME280;3229;42.674;23.282;2023-02-11T09:52:29;96123.75;;;12.75;36.08
6393;BME280;3229;42.674;23.282;2023-02-11T09:55:00;96123.50;;;12.67;36.04
6393;BME280;3229;42.674;23.282;2023-02-11T09:57:31;96113.94;;;12.58;36.15
6393;BME280;3229;42.674;23.282;2023-02-11T09:59:58;96108.44;;;12.51;36.11
6393;BME280;3229;42.674;23.282;2023-02-11T10:02:30;96099.66;;;12.42;35.98
6393;BME280;3229;42.674;23.282;2023-02-11T10:05:19;96093.47;;;12.34;35.95
6393;BME280;3229;42.674;23.282;2023-02-11T10:07:55;96090.66;;;12.25;36.24
6393;BME280;3229;42.674;23.282;2023-02-11T10:10:36;96079.91;;;12.20;36.02
6393;BME280;3229;42.674;23.282;2023-02-11T10:13:18;96085.59;;;12.13;36.15
6393;BME280;3229;42.674;23.282;2023-02-11T10:15:54;96081.75;;;12.07;35.92
6393;BME280;3229;42.674;23.282;2023-02-11T10:18:41;96074.53;;;12.01;35.98
6393;BME280;3229;42.674;23.282;2023-02-11T10:21:18;96074.75;;;11.98;35.85
6393;BME280;3229;42.674;23.282;2023-02-11T10:23:51;96018.69;;;11.69;35.90
6393;BME280;3229;42.674;23.282;2023-02-11T10:26:20;96046.28;;;11.90;35.82
6393;BME280;3229;42.674;23.282;2023-02-11T10:28:50;96035.72;;;11.81;35.86
6393;BME280;3229;42.674;23.282;2023-02-11T10:31:21;96033.81;;;11.85;35.80
6393;BME280;3229;42.674;23.282;2023-02-11T10:33:53;96018.59;;;11.82;35.67
6393;BME280;3229;42.674;23.282;2023-02-11T10:36:27;96003.91;;;11.73;35.96
6393;BME280;3229;42.674;23.282;2023-02-11T10:38:55;96006.94;;;11.78;35.87
6393;BME280;3229;42.674;23.282;2023-02-11T10:41:27;96006.25;;;11.76;35.80
6393;BME280;3229;42.674;23.282;2023-02-11T10:43:58;95998.56;;;11.76;35.57
6393;BME280;3229;42.674;23.282;2023-02-11T10:46:32;95999.50;;;11.75;35.71
6393;BME280;3229;42.674;23.282;2023-02-11T10:49:00;95993.66;;;11.73;35.96
6393;BME280;3229;42.674;23.282;2023-02-11T10:51:30;95987.84;;;11.71;35.76
6393;BME280;3229;42.674;23.282;2023-02-11T10:54:16;95984.47;;;11.70;35.75
6393;BME280;3229;42.674;23.282;2023-02-11T10:56:47;95952.38;;;11.53;35.82
6393;BME280;3229;42.674;23.282;2023-02-11T10:59:27;95970.81;;;11.70;35.58
6393;BME280;3229;42.674;23.282;2023-02-11T11:01:56;95970.00;;;11.69;35.46
6393;BME280;3229;42.674;23.282;2023-02-11T11:04:39;95928.25;;;11.45;35.68
6393;BME280;3229;42.674;23.282;2023-02-11T11:07:13;95962.44;;;11.68;35.60
6393;BME280;3229;42.674;23.282;2023-02-11T11:09:48;95965.94;;;11.67;35.66
6393;BME280;3229;42.674;23.282;2023-02-11T11:12:29;95961.63;;;11.67;35.59
6393;BME280;3229;42.674;23.282;2023-02-11T11:14:58;95960.00;;;11.66;35.75
6393;BME280;3229;42.674;23.282;2023-02-11T11:17:25;95956.50;;;11.67;35.64
6393;BME280;3229;42.674;23.282;2023-02-11T11:19:55;95950.56;;;11.67;35.61
6393;BME280;3229;42.674;23.282;2023-02-11T11:22:40;95952.31;;;11.66;35.58
6393;BME280;3229;42.674;23.282;2023-02-11T11:25:20;95946.25;;;11.67;35.51
6393;BME280;3229;42.674;23.282;2023-02-11T11:27:48;95952.06;;;11.69;35.65
6393;BME280;3229;42.674;23.282;2023-02-11T11:30:16;95950.31;;;11.70;35.66
6393;BME280;3229;42.674;23.282;2023-02-11T11:32:44;95952.06;;;11.69;35.71
6393;BME280;3229;42.674;23.282;2023-02-11T11:35:22;95934.13;;;11.69;35.54
6393;BME280;3229;42.674;23.282;2023-02-11T11:37:54;95938.91;;;11.74;35.59
6393;BME280;3229;42.674;23.282;2023-02-11T11:40:24;95938.22;;;11.72;35.82
6393;BME280;3229;42.674;23.282;2023-02-11T11:43:14;95937.28;;;11.73;35.56
6393;BME280;3229;42.674;23.282;2023-02-11T11:45:52;95927.25;;;11.70;35.59
6393;BME280;3229;42.674;23.282;2023-02-11T11:48:22;95928.19;;;11.69;35.59
6393;BME280;3229;42.674;23.282;2023-02-11T11:50:52;95920.63;;;11.67;35.54
6393;BME280;3229;42.674;23.282;2023-02-11T11:53:30;95922.03;;;11.71;35.66
6393;BME280;3229;42.674;23.282;2023-02-11T11:56:01;95924.47;;;11.73;35.60
6393;BME280;3229;42.674;23.282;2023-02-11T11:58:30;95917.59;;;11.73;35.41
6393;BME280;3229;42.674;23.282;2023-02-11T12:01:05;95905.59;;;11.74;35.32
6393;BME280;3229;42.674;23.282;2023-02-11T12:06:42;95890.47;;;11.71;35.52
6393;BME280;3229;42.674;23.282;2023-02-11T12:09:21;95897.81;;;11.75;35.64
6393;BME280;3229;42.674;23.282;2023-02-11T12:12:05;95894.31;;;11.76;35.44
6393;BME280;3229;42.674;23.282;2023-02-11T12:14:42;95880.81;;;11.74;35.49
6393;BME280;3229;42.674;23.282;2023-02-11T12:17:21;95879.97;;;11.74;35.54
6393;BME280;3229;42.674;23.282;2023-02-11T12:20:03;95875.09;;;11.71;35.36
6393;BME280;3229;42.674;23.282;2023-02-11T12:22:45;95869.03;;;11.72;35.47
6393;BME280;3229;42.674;23.282;2023-02-11T12:25:24;95868.31;;;11.70;35.50
6393;BME280;3229;42.674;23.282;2023-02-11T12:28:02;95868.44;;;11.68;35.31
6393;BME280;3229;42.674;23.282;2023-02-11T12:30:48;95866.00;;;11.67;35.35
6393;BME280;3229;42.674;23.282;2023-02-11T12:33:27;95847.69;;;11.60;35.44
6393;BME280;3229;42.674;23.282;2023-02-11T12:36:03;95858.66;;;11.62;35.26
6393;BME280;3229;42.674;23.282;2023-02-11T12:38:47;95849.44;;;11.60;35.35
6393;BME280;3229;42.674;23.282;2023-02-11T12:41:25;95851.31;;;11.58;35.11
6393;BME280;3229;42.674;23.282;2023-02-11T12:44:23;95843.84;;;11.54;35.31
6393;BME280;3229;42.674;23.282;2023-02-11T12:46:56;95834.53;;;11.53;35.46
6393;BME280;3229;42.674;23.282;2023-02-11T12:49:48;95833.00;;;11.51;35.40
6393;BME280;3229;42.674;23.282;2023-02-11T12:52:26;95832.19;;;11.50;35.28
6393;BME280;3229;42.674;23.282;2023-02-11T12:55:01;95835.69;;;11.49;35.36
6393;BME280;3229;42.674;23.282;2023-02-11T12:57:31;95825.53;;;11.48;35.31
6393;BME280;3229;42.674;23.282;2023-02-11T13:00:02;95826.34;;;11.48;35.26
6393;BME280;3229;42.674;23.282;2023-02-11T13:02:35;95820.56;;;11.46;35.33
6393;BME280;3229;42.674;23.282;2023-02-11T13:05:11;95832.53;;;11.46;35.44
6393;BME280;3229;42.674;23.282;2023-02-11T13:07:45;95820.78;;;11.43;35.33
6393;BME280;3229;42.674;23.282;2023-02-11T13:10:23;95820.91;;;11.42;35.29
6393;BME280;3229;42.674;23.282;2023-02-11T13:12:53;95821.84;;;11.41;35.22
6393;BME280;3229;42.674;23.282;2023-02-11T13:15:39;95825.31;;;11.40;35.31
6393;BME280;3229;42.674;23.282;2023-02-11T13:18:13;95808.44;;;11.37;35.60
6393;BME280;3229;42.674;23.282;2023-02-11T13:20:46;95814.38;;;11.38;35.44
6393;BME280;3229;42.674;23.282;2023-02-11T13:23:22;95809.38;;;11.36;35.39
6393;BME280;3229;42.674;23.282;2023-02-11T13:25:57;95806.09;;;11.34;35.31
6393;BME280;3229;42.674;23.282;2023-02-11T13:28:39;95804.59;;;11.32;35.35
6393;BME280;3229;42.674;23.282;2023-02-11T13:31:10;95806.31;;;11.31;35.26
6393;BME280;3229;42.674;23.282;2023-02-11T13:33:41;95807.38;;;11.28;35.61
6393;BME280;3229;42.674;23.282;2023-02-11T13:36:20;95804.22;;;11.25;35.42
6393;BME280;3229;42.674;23.282;2023-02-11T13:39:02;95801.78;;;11.23;35.39
6393;BME280;3229;42.674;23.282;2023-02-11T13:41:32;95790.94;;;11.20;35.46
6393;BME280;3229;42.674;23.282;2023-02-11T13:44:24;95796.88;;;11.20;35.50